Time;durP1;ratioP1;P1;durP2;ratioP2;P2;SDS_P1;SDS_P2;PMS_P1;PMS_P2;Temp;Humidity;BMP_temperature;BMP_pressure;BME280_temperature;BME280_humidity;BME280_pressure;Samples;Min_cycle;Max_cycle;Signal;HPM_P1;HPM_P2
2023/10/25 00:02:12;;;;;;;;;;;;;;;21.32;26.99;97472.72;5034202;28;703;-79
2023/10/25 00:04:38;;;;;;;;;;;;;;;21.26;27.00;97463.22;5018201;28;767;-78
2023/10/25 00:07:03;;;;;;;;;;;;;;;21.00;27.60;97461.66;5034445;28;830;-79
2023/10/25 00:09:29;;;;;;;;;;;;;;;20.92;27.98;97457.47;5017684;28;1902;-79
2023/10/25 00:11:54;;;;;;;;;;;;;;;20.86;27.64;97467.78;5032890;28;1181;-80
2023/10/25 00:14:20;;;;;;;;;;;;;;;20.85;27.70;97454.91;5039440;28;1235;-79
2023/10/25 00:16:45;;;;;;;;;;;;;;;20.65;28.20;97446.63;5039348;28;1434;-78
2023/10/25 00:19:11;;;;;;;;;;;;;;;20.61;28.42;97445.94;5040418;28;809;-79
2023/10/25 00:21:37;;;;;;;;;;;;;;;20.49;28.45;97444.72;5039223;28;1438;-79
2023/10/25 00:24:02;;;;;;;;;;;;;;;20.20;28.79;97448.34;5055595;28;849;-79
2023/10/25 00:26:28;;;;;;;;;;;;;;;20.54;28.37;97446.97;5040199;28;826;-79
2023/10/25 00:28:55;;;;;;;;;;;;;;;20.52;28.32;97440.97;5039159;28;778;-79
2023/10/25 00:31:20;;;;;;;;;;;;;;;20.58;28.21;97433.53;5018339;28;1918;-78
2023/10/25 00:33:46;;;;;;;;;;;;;;;20.57;28.25;97429.09;5018178;28;977;-79
2023/10/25 00:36:11;;;;;;;;;;;;;;;20.28;28.42;97424.31;5018017;28;1123;-79
2023/10/25 00:38:37;;;;;;;;;;;;;;;20.58;28.24;97425.03;5017865;28;1233;-79
2023/10/25 00:41:03;;;;;;;;;;;;;;;20.55;28.27;97426.72;5018150;28;781;-79
2023/10/25 00:43:28;;;;;;;;;;;;;;;20.45;28.50;97415.72;5017983;28;724;-79
2023/10/25 00:45:57;;;;;;;;;;;;;;;20.85;27.57;97415.31;5018035;28;1592;-79
2023/10/25 00:48:23;;;;;;;;;;;;;;;20.33;28.57;97422.19;5017705;28;696;-79
2023/10/25 00:50:48;;;;;;;;;;;;;;;20.40;28.38;97414.25;5018006;28;1898;-78
2023/10/25 00:53:14;;;;;;;;;;;;;;;20.33;28.64;97408.03;5017730;28;913;-79
2023/10/25 00:55:39;;;;;;;;;;;;;;;20.68;28.15;97406.97;5001242;28;946;-79
2023/10/25 00:58:05;;;;;;;;;;;;;;;20.99;27.44;97397.88;5017383;28;830;-79
2023/10/25 01:00:30;;;;;;;;;;;;;;;21.14;27.27;97396.16;5017315;28;727;-79
2023/10/25 01:02:56;;;;;;;;;;;;;;;21.20;27.34;97397.13;4978450;28;1389;-79
2023/10/25 01:05:21;;;;;;;;;;;;;;;20.88;27.85;97403.06;4978410;28;948;-79
2023/10/25 01:07:48;;;;;;;;;;;;;;;20.67;28.32;97393.25;4978503;28;835;-78
2023/10/25 01:10:14;;;;;;;;;;;;;;;20.61;28.37;97395.84;4977923;28;1894;-79
2023/10/25 01:12:39;;;;;;;;;;;;;;;20.58;28.15;97396.78;4978467;28;781;-79
2023/10/25 01:15:06;;;;;;;;;;;;;;;20.70;27.96;97389.53;4978183;28;1343;-79
2023/10/25 01:17:31;;;;;;;;;;;;;;;20.71;27.83;97386.25;4977938;28;1281;-79
2023/10/25 01:19:57;;;;;;;;;;;;;;;20.61;28.35;97393.03;4977991;28;816;-79
2023/10/25 01:22:25;;;;;;;;;;;;;;;20.60;28.30;97387.84;4961512;28;1310;-79
2023/10/25 01:24:51;;;;;;;;;;;;;;;20.27;28.60;97383.19;4977786;28;926;-78
2023/10/25 01:27:17;;;;;;;;;;;;;;;20.71;27.91;97388.28;4978146;28;866;-79
2023/10/25 01:29:42;;;;;;;;;;;;;;;20.57;28.27;97391.56;4961814;28;1902;-79
2023/10/25 01:32:08;;;;;;;;;;;;;;;20.59;28.29;97395.53;4978047;28;892;-78
2023/10/25 01:34:33;;;;;;;;;;;;;;;20.71;28.09;97406.03;4977936;28;1063;-79
2023/10/25 01:36:59;;;;;;;;;;;;;;;20.67;27.94;97399.69;4978241;28;1226;-78
2023/10/25 01:39:24;;;;;;;;;;;;;;;20.50;28.18;97401.06;4984412;28;921;-79
2023/10/25 01:41:50;;;;;;;;;;;;;;;20.80;27.80;97403.31;5016572;28;951;-78
2023/10/25 01:44:15;;;;;;;;;;;;;;;20.67;27.85;97393.25;5016279;28;1180;-78
2023/10/25 01:46:41;;;;;;;;;;;;;;;20.40;28.16;97393.69;5016824;28;1221;-78
2023/10/25 01:49:07;;;;;;;;;;;;;;;20.79;28.01;97396.09;5016251;28;743;-79
2023/10/25 01:51:33;;;;;;;;;;;;;;;21.07;27.50;97382.22;5017077;28;1914;-78
2023/10/25 01:53:58;;;;;;;;;;;;;;;21.20;27.18;97387.88;5016530;28;1214;-79
2023/10/25 01:56:24;;;;;;;;;;;;;;;21.33;27.14;97383.75;4977485;28;1164;-79
2023/10/25 01:58:49;;;;;;;;;;;;;;;21.04;27.39;97377.50;4977554;28;1167;-79
2023/10/25 02:01:15;;;;;;;;;;;;;;;21.01;27.57;97384.06;4977236;28;1271;-78
2023/10/25 02:03:40;;;;;;;;;;;;;;;20.96;27.48;97374.09;4977259;28;1269;-78
2023/10/25 02:06:14;;;;;;;;;;;;;;;21.13;27.18;97366.25;4960872;28;1314;-79
2023/10/25 02:08:40;;;;;;;;;;;;;;;20.61;28.07;97373.25;4977307;28;1251;-78
2023/10/25 02:11:06;;;;;;;;;;;;;;;20.48;28.45;97375.31;4977165;28;1981;-79
2023/10/25 02:13:31;;;;;;;;;;;;;;;20.51;28.23;97380.03;4972992;28;1122;-79
2023/10/25 02:15:57;;;;;;;;;;;;;;;20.81;27.86;97359.66;4961222;28;1120;-79
2023/10/25 02:18:24;;;;;;;;;;;;;;;20.70;27.88;97370.53;4977131;28;1251;-79
2023/10/25 02:20:51;;;;;;;;;;;;;;;20.96;27.49;97359.97;4977018;28;904;-79
2023/10/25 02:23:16;;;;;;;;;;;;;;;20.51;28.00;97357.44;4944836;28;1171;-78
2023/10/25 02:25:42;;;;;;;;;;;;;;;20.49;28.23;97348.63;4977034;28;700;-79
2023/10/25 02:28:08;;;;;;;;;;;;;;;20.42;28.26;97349.63;5008544;28;774;-79
2023/10/25 02:30:34;;;;;;;;;;;;;;;20.51;28.08;97358.22;5015768;28;1910;-79
2023/10/25 02:32:59;;;;;;;;;;;;;;;20.62;28.02;97362.72;4998858;28;1151;-78
2023/10/25 02:35:25;;;;;;;;;;;;;;;20.64;28.10;97355.41;5016058;28;879;-79
2023/10/25 02:37:51;;;;;;;;;;;;;;;20.52;28.09;97348.50;5015909;28;807;-79
2023/10/25 02:40:16;;;;;;;;;;;;;;;21.19;27.17;97344.63;5015946;28;904;-79
2023/10/25 02:42:44;;;;;;;;;;;;;;;21.56;26.71;97347.78;4999350;28;1155;-78
2023/10/25 02:45:09;;;;;;;;;;;;;;;21.38;26.95;97345.59;5026062;28;1103;-79
2023/10/25 02:47:36;;;;;;;;;;;;;;;21.03;27.41;97348.41;5018489;28;1061;-78
2023/10/25 02:50:02;;;;;;;;;;;;;;;21.04;27.39;97357.69;5034958;28;1899;-79
2023/10/25 02:52:27;;;;;;;;;;;;;;;20.88;27.75;97363.47;5035020;28;987;-79
2023/10/25 02:54:53;;;;;;;;;;;;;;;20.74;27.87;97359.91;5018187;28;892;-79
2023/10/25 02:57:19;;;;;;;;;;;;;;;21.00;27.30;97362.69;5034931;28;777;-78
2023/10/25 02:59:44;;;;;;;;;;;;;;;20.81;27.94;97354.00;5034575;28;755;-79
2023/10/25 03:02:10;;;;;;;;;;;;;;;20.66;28.16;97357.75;5018349;28;1172;-80
2023/10/25 03:04:36;;;;;;;;;;;;;;;20.66;27.99;97346.44;5018284;28;1172;-79
2023/10/25 03:07:01;;;;;;;;;;;;;;;20.48;28.45;97330.88;5034675;28;782;-79
2023/10/25 03:09:27;;;;;;;;;;;;;;;20.40;28.23;97323.84;5017836;28;1910;-79
2023/10/25 03:11:53;;;;;;;;;;;;;;;20.29;28.61;97314.91;5018056;28;1163;-79
2023/10/25 03:14:18;;;;;;;;;;;;;;;21.28;27.24;97319.22;5017949;28;826;-79
2023/10/25 03:16:44;;;;;;;;;;;;;;;21.49;26.68;97316.91;5001893;28;1269;-79
2023/10/25 03:19:09;;;;;;;;;;;;;;;21.29;27.02;97315.16;5034625;28;817;-79
2023/10/25 03:21:35;;;;;;;;;;;;;;;21.13;27.54;97326.66;5019856;28;1126;-79
2023/10/25 03:24:00;;;;;;;;;;;;;;;20.94;27.47;97319.25;5035442;28;1155;-80
2023/10/25 03:26:26;;;;;;;;;;;;;;;20.62;28.15;97311.84;5034648;28;990;-78
2023/10/25 03:28:51;;;;;;;;;;;;;;;20.60;28.05;97309.50;5017843;28;1248;-79
2023/10/25 03:31:17;;;;;;;;;;;;;;;20.53;28.08;97309.75;5018104;28;1985;-79
2023/10/25 03:33:45;;;;;;;;;;;;;;;20.41;28.43;97319.75;5034481;28;750;-78
2023/10/25 03:36:10;;;;;;;;;;;;;;;20.56;27.95;97300.34;5034760;28;884;-79
2023/10/25 03:38:36;;;;;;;;;;;;;;;20.64;27.84;97293.22;5017746;28;1396;-79
2023/10/25 03:41:05;;;;;;;;;;;;;;;20.62;27.81;97289.25;5001503;28;933;-79
2023/10/25 03:43:34;;;;;;;;;;;;;;;20.63;27.77;97291.63;5017609;28;1054;-79
2023/10/25 03:46:06;;;;;;;;;;;;;;;20.76;27.65;97294.41;5034632;28;1396;-79
2023/10/25 03:48:32;;;;;;;;;;;;;;;20.52;28.06;97308.13;5017719;28;1219;-78
2023/10/25 03:50:57;;;;;;;;;;;;;;;20.87;27.44;97306.13;5034403;28;1918;-79
2023/10/25 03:53:23;;;;;;;;;;;;;;;20.48;28.03;97301.84;5034078;28;1078;-79
2023/10/25 03:55:54;;;;;;;;;;;;;;;20.34;28.43;97290.97;5034478;28;965;-79
2023/10/25 03:58:19;;;;;;;;;;;;;;;20.67;27.54;97286.63;5033910;28;972;-79
2023/10/25 04:00:45;;;;;;;;;;;;;;;20.80;27.64;97289.44;5034102;28;1119;-78
2023/10/25 04:03:10;;;;;;;;;;;;;;;20.99;27.41;97284.75;5033629;28;790;-79
2023/10/25 04:05:39;;;;;;;;;;;;;;;21.35;26.81;97277.78;5033733;28;1277;-78
2023/10/25 04:08:04;;;;;;;;;;;;;;;21.31;26.98;97283.59;5034040;28;1021;-79
2023/10/25 04:10:30;;;;;;;;;;;;;;;21.19;26.93;97259.75;5034072;28;1906;-79
2023/10/25 04:12:55;;;;;;;;;;;;;;;21.11;27.21;97261.25;5033587;28;969;-78
2023/10/25 04:15:21;;;;;;;;;;;;;;;20.86;27.71;97261.38;5033485;28;1206;-79
2023/10/25 04:17:47;;;;;;;;;;;;;;;20.89;27.75;97268.94;5033761;28;1153;-79
2023/10/25 04:20:12;;;;;;;;;;;;;;;20.94;27.46;97280.47;5033788;28;988;-79
2023/10/25 04:22:38;;;;;;;;;;;;;;;20.69;27.57;97278.50;5018622;28;1198;-79
2023/10/25 04:25:03;;;;;;;;;;;;;;;20.47;27.96;97280.47;5014198;28;1088;-78
2023/10/25 04:27:29;;;;;;;;;;;;;;;20.55;27.95;97284.63;5013918;28;935;-79
2023/10/25 04:29:55;;;;;;;;;;;;;;;20.20;28.49;97283.72;4996568;28;1914;-78
2023/10/25 04:32:21;;;;;;;;;;;;;;;20.42;28.07;97286.66;5051852;28;854;-79
2023/10/25 04:34:46;;;;;;;;;;;;;;;20.51;28.11;97278.28;5035528;28;786;-79
2023/10/25 04:37:13;;;;;;;;;;;;;;;20.75;27.88;97275.88;5034744;28;909;-79
2023/10/25 04:39:39;;;;;;;;;;;;;;;20.35;28.38;97269.94;5035924;28;911;-79
2023/10/25 04:42:05;;;;;;;;;;;;;;;20.65;27.73;97272.16;5033707;28;997;-78
2023/10/25 04:44:31;;;;;;;;;;;;;;;20.32;28.27;97270.84;5033850;28;1212;-79
2023/10/25 04:46:57;;;;;;;;;;;;;;;20.78;27.69;97261.63;5017080;28;945;-78
2023/10/25 04:49:22;;;;;;;;;;;;;;;21.18;26.90;97261.00;5033650;28;959;-78
2023/10/25 04:51:48;;;;;;;;;;;;;;;21.53;26.73;97241.13;5017039;28;1976;-79
2023/10/25 04:54:13;;;;;;;;;;;;;;;21.29;26.99;97247.22;5016917;28;1266;-79
2023/10/25 04:56:39;;;;;;;;;;;;;;;20.99;27.19;97250.81;5018201;28;1122;-79
2023/10/25 04:59:04;;;;;;;;;;;;;;;21.01;27.16;97245.47;5020622;28;1375;-79
2023/10/25 05:01:30;;;;;;;;;;;;;;;20.98;27.04;97250.00;5037575;28;950;-78
2023/10/25 05:03:55;;;;;;;;;;;;;;;20.85;27.58;97246.44;5036849;28;795;-79
2023/10/25 05:06:21;;;;;;;;;;;;;;;20.90;27.62;97242.25;5020472;28;1212;-79
2023/10/25 05:08:47;;;;;;;;;;;;;;;20.62;27.98;97256.09;5036630;28;889;-78
2023/10/25 05:11:13;;;;;;;;;;;;;;;20.49;27.88;97247.69;5020624;28;1906;-79
2023/10/25 05:13:39;;;;;;;;;;;;;;;20.56;27.88;97252.28;5021142;28;1284;-79
2023/10/25 05:16:05;;;;;;;;;;;;;;;20.79;27.47;97260.38;5020520;28;1251;-78
2023/10/25 05:18:31;;;;;;;;;;;;;;;20.85;27.23;97263.41;5036655;28;1110;-78
2023/10/25 05:20:57;;;;;;;;;;;;;;;20.72;27.74;97254.94;5020419;28;905;-77
2023/10/25 05:23:26;;;;;;;;;;;;;;;20.75;27.35;97254.03;5052999;28;921;-77
2023/10/25 05:25:51;;;;;;;;;;;;;;;20.63;27.61;97257.72;5020241;28;1494;-78
2023/10/25 05:28:17;;;;;;;;;;;;;;;20.71;27.55;97258.25;5036912;28;922;-78
2023/10/25 05:30:43;;;;;;;;;;;;;;;21.18;27.17;97258.16;5030363;28;1918;-77
2023/10/25 05:33:08;;;;;;;;;;;;;;;21.53;26.23;97243.97;5003813;28;1492;-78
2023/10/25 05:35:34;;;;;;;;;;;;;;;21.53;26.50;97239.09;5036983;28;1000;-77
2023/10/25 05:38:02;;;;;;;;;;;;;;;21.41;26.65;97233.53;5004055;28;1005;-77
2023/10/25 05:40:28;;;;;;;;;;;;;;;21.27;26.96;97244.09;5004132;28;1202;-78
2023/10/25 05:42:53;;;;;;;;;;;;;;;21.14;26.97;97239.75;5020352;28;1108;-77
2023/10/25 05:45:19;;;;;;;;;;;;;;;20.67;27.51;97230.09;5003674;28;2023;-78
2023/10/25 05:47:45;;;;;;;;;;;;;;;20.55;27.68;97236.59;5019020;28;1015;-78
2023/10/25 05:50:10;;;;;;;;;;;;;;;20.66;27.65;97234.16;5039769;28;1910;-78
2023/10/25 05:52:36;;;;;;;;;;;;;;;20.47;28.00;97229.59;5040003;28;906;-78
2023/10/25 05:55:02;;;;;;;;;;;;;;;20.74;27.49;97232.69;4999815;28;1063;-78
2023/10/25 05:57:27;;;;;;;;;;;;;;;20.58;27.79;97221.53;5016400;28;907;-76
2023/10/25 05:59:53;;;;;;;;;;;;;;;20.41;27.95;97217.25;4999929;28;1218;-78
2023/10/25 06:02:22;;;;;;;;;;;;;;;20.47;28.25;97207.00;5000553;28;1163;-78
2023/10/25 06:04:48;;;;;;;;;;;;;;;20.59;27.83;97194.84;5016455;28;922;-77
2023/10/25 06:07:14;;;;;;;;;;;;;;;20.99;27.41;97182.94;5016225;28;1037;-79
2023/10/25 06:09:40;;;;;;;;;;;;;;;21.07;27.24;97201.19;4976176;28;1906;-78
2023/10/25 06:12:06;;;;;;;;;;;;;;;21.50;26.54;97210.91;4977397;28;966;-77
2023/10/25 06:14:32;;;;;;;;;;;;;;;21.38;26.98;97211.81;4960838;28;928;-77
2023/10/25 06:16:58;;;;;;;;;;;;;;;21.17;26.83;97211.31;4961002;28;1343;-78
2023/10/25 06:19:23;;;;;;;;;;;;;;;20.95;27.32;97202.84;4960807;28;1061;-77
2023/10/25 06:21:48;;;;;;;;;;;;;;;20.93;27.35;97201.72;4944900;28;1436;-78
2023/10/25 06:24:14;;;;;;;;;;;;;;;20.86;27.62;97201.97;4945050;28;1086;-78
2023/10/25 06:26:41;;;;;;;;;;;;;;;20.70;27.85;97212.22;4960967;28;1249;-78
2023/10/25 06:29:10;;;;;;;;;;;;;;;20.54;27.89;97213.19;4977192;28;977;-78
2023/10/25 06:31:35;;;;;;;;;;;;;;;20.62;27.85;97215.75;4985255;28;1911;-78
2023/10/25 06:34:01;;;;;;;;;;;;;;;20.39;28.45;97236.72;5019265;28;1114;-78
2023/10/25 06:36:26;;;;;;;;;;;;;;;20.75;27.84;97203.16;5003189;28;1308;-79
2023/10/25 06:38:52;;;;;;;;;;;;;;;20.84;27.71;97210.16;5003037;28;1114;-79
2023/10/25 06:41:18;;;;;;;;;;;;;;;20.94;27.60;97214.63;4996529;28;1148;-78
2023/10/25 06:43:44;;;;;;;;;;;;;;;20.87;27.73;97209.22;4979874;28;1015;-78
2023/10/25 06:46:10;;;;;;;;;;;;;;;21.29;27.08;97213.28;4984812;28;1220;-79
2023/10/25 06:48:36;;;;;;;;;;;;;;;21.53;26.94;97222.13;5002783;28;1053;-78
2023/10/25 06:51:05;;;;;;;;;;;;;;;21.31;26.98;97210.03;5002622;28;1981;-79
2023/10/25 06:53:31;;;;;;;;;;;;;;;21.19;27.47;97214.50;5034985;28;1006;-78
2023/10/25 06:55:56;;;;;;;;;;;;;;;21.11;27.64;97224.50;5035840;28;1151;-78
2023/10/25 06:58:22;;;;;;;;;;;;;;;21.22;27.49;97205.06;5018775;28;1021;-79
2023/10/25 07:00:47;;;;;;;;;;;;;;;21.17;27.54;97205.66;5035240;28;994;-78
2023/10/25 07:03:13;;;;;;;;;;;;;;;21.24;27.55;97213.91;5002448;28;1060;-80
2023/10/25 07:05:38;;;;;;;;;;;;;;;21.40;27.19;97212.13;5018845;28;1019;-74
2023/10/25 07:08:04;;;;;;;;;;;;;;;21.35;27.48;97209.88;5018548;28;1021;-79
2023/10/25 07:10:30;;;;;;;;;;;;;;;21.15;27.83;97208.19;5018971;28;1914;-80
2023/10/25 07:12:56;;;;;;;;;;;;;;;21.13;27.76;97193.69;4998756;28;1275;-79
2023/10/25 07:15:24;;;;;;;;;;;;;;;21.20;27.71;97196.28;4982958;28;933;-79
2023/10/25 07:17:49;;;;;;;;;;;;;;;21.20;27.44;97193.44;4998892;28;1205;-79
2023/10/25 07:20:15;;;;;;;;;;;;;;;21.33;27.58;97180.00;5014652;28;1099;-79
2023/10/25 07:22:41;;;;;;;;;;;;;;;21.49;27.07;97175.38;4960029;28;1119;-79
2023/10/25 07:25:07;;;;;;;;;;;;;;;21.50;27.41;97174.13;4918513;29;1097;-80
2023/10/25 07:27:33;;;;;;;;;;;;;;;21.10;27.97;97160.69;4918277;29;1087;-78
2023/10/25 07:29:58;;;;;;;;;;;;;;;21.10;27.82;97169.16;4918298;29;1969;-79
2023/10/25 07:32:24;;;;;;;;;;;;;;;20.95;28.13;97177.41;4917690;29;1464;-78
2023/10/25 07:34:50;;;;;;;;;;;;;;;21.04;27.70;97171.03;4937246;29;994;-78
2023/10/25 07:37:15;;;;;;;;;;;;;;;20.69;28.41;97159.78;4952495;29;1433;-78
2023/10/25 07:39:41;;;;;;;;;;;;;;;20.83;28.25;97164.13;4936276;29;1252;-78
2023/10/25 07:42:07;;;;;;;;;;;;;;;20.64;28.33;97154.69;4937164;29;1163;-78
2023/10/25 07:44:33;;;;;;;;;;;;;;;20.63;28.36;97160.81;4967574;28;1120;-78
2023/10/25 07:46:58;;;;;;;;;;;;;;;20.57;28.56;97163.41;4972135;28;993;-78
2023/10/25 07:49:24;;;;;;;;;;;;;;;20.73;28.24;97166.09;4972241;28;948;-78
2023/10/25 07:51:49;;;;;;;;;;;;;;;20.64;28.24;97154.69;4972242;28;1906;-80
2023/10/25 07:54:15;;;;;;;;;;;;;;;20.81;27.86;97161.72;4955809;29;925;-80
2023/10/25 07:56:40;;;;;;;;;;;;;;;20.80;28.12;97154.50;4984410;28;1428;-80
2023/10/25 07:59:06;;;;;;;;;;;;;;;20.76;28.16;97147.41;4981751;28;1139;-80
2023/10/25 08:01:31;;;;;;;;;;;;;;;20.99;27.80;97154.66;5034039;28;1211;-76
2023/10/25 08:03:57;;;;;;;;;;;;;;;20.91;27.84;97170.28;5034153;28;1081;-78
2023/10/25 08:06:22;;;;;;;;;;;;;;;20.79;28.02;97158.59;4988789;28;897;-78
2023/10/25 08:08:50;;;;;;;;;;;;;;;20.51;28.40;97156.78;4994608;28;936;-78
2023/10/25 08:11:16;;;;;;;;;;;;;;;20.76;28.04;97153.84;4994568;28;1903;-79
2023/10/25 08:13:44;;;;;;;;;;;;;;;20.72;27.87;97147.53;4994640;28;922;-78
2023/10/25 08:16:10;;;;;;;;;;;;;;;20.76;28.01;97136.88;4994778;28;903;-79
2023/10/25 08:18:35;;;;;;;;;;;;;;;20.57;28.16;97129.50;4994525;28;1522;-79
2023/10/25 08:21:01;;;;;;;;;;;;;;;20.68;27.93;97146.88;4994853;28;987;-79
2023/10/25 08:23:27;;;;;;;;;;;;;;;20.47;28.25;97156.13;4994393;28;1546;-77
2023/10/25 08:25:52;;;;;;;;;;;;;;;20.52;28.28;97150.69;4994848;28;973;-79
2023/10/25 08:28:18;;;;;;;;;;;;;;;20.66;28.14;97140.88;5037508;28;1072;-78
2023/10/25 08:30:43;;;;;;;;;;;;;;;20.45;28.40;97133.16;5051553;28;1972;-79
2023/10/25 08:33:10;;;;;;;;;;;;;;;20.61;28.17;97124.53;5054811;28;937;-78
2023/10/25 08:35:37;;;;;;;;;;;;;;;20.40;28.57;97117.56;5039165;28;1196;-79
2023/10/25 08:38:03;;;;;;;;;;;;;;;20.29;28.67;97125.66;5039915;28;786;-79
2023/10/25 08:40:29;;;;;;;;;;;;;;;20.43;28.62;97130.00;5055571;28;957;-79
2023/10/25 08:42:57;;;;;;;;;;;;;;;21.00;27.86;97142.06;5037523;28;931;-79
2023/10/25 08:45:23;;;;;;;;;;;;;;;21.46;27.50;97125.38;5037208;28;1231;-79
2023/10/25 08:47:49;;;;;;;;;;;;;;;21.43;27.41;97126.31;5037343;28;1247;-78
2023/10/25 08:50:19;;;;;;;;;;;;;;;21.05;27.83;97118.84;5036894;28;1902;-79
2023/10/25 08:52:44;;;;;;;;;;;;;;;20.92;28.18;97132.28;5021338;28;868;-79
2023/10/25 08:55:10;;;;;;;;;;;;;;;20.73;28.28;97120.06;5037555;28;783;-79
2023/10/25 08:57:36;;;;;;;;;;;;;;;20.67;28.66;97122.66;5037068;28;822;-78
2023/10/25 09:00:02;;;;;;;;;;;;;;;20.77;28.51;97120.69;5037155;28;887;-78
2023/10/25 09:02:28;;;;;;;;;;;;;;;20.74;28.28;97125.25;5037219;28;1015;-78
2023/10/25 09:04:57;;;;;;;;;;;;;;;20.57;28.57;97132.34;5037053;28;1038;-78
2023/10/25 09:07:26;;;;;;;;;;;;;;;20.49;28.96;97122.56;5037162;28;945;-79
2023/10/25 09:09:51;;;;;;;;;;;;;;;20.79;28.29;97129.53;5020628;28;1919;-78
2023/10/25 09:12:20;;;;;;;;;;;;;;;20.66;28.35;97120.31;5036991;28;1027;-78
2023/10/25 09:14:47;;;;;;;;;;;;;;;20.85;28.19;97119.19;5051814;28;1321;-78
2023/10/25 09:17:12;;;;;;;;;;;;;;;20.95;28.03;97120.84;5037226;28;1005;-78
2023/10/25 09:19:42;;;;;;;;;;;;;;;20.59;28.44;97115.72;5036964;28;967;-78
2023/10/25 09:22:33;;;;;;;;;;;;;;;20.17;29.08;97113.16;5037317;28;1038;-79
2023/10/25 09:24:59;;;;;;;;;;;;;;;20.53;28.37;97109.09;5016689;28;961;-78
2023/10/25 09:27:25;;;;;;;;;;;;;;;20.73;28.04;97108.75;4977900;28;953;-77
2023/10/25 09:29:50;;;;;;;;;;;;;;;20.87;28.06;97118.72;4977920;28;1911;-78
2023/10/25 09:32:20;;;;;;;;;;;;;;;20.59;28.41;97109.28;4977902;28;966;-79
2023/10/25 09:34:46;;;;;;;;;;;;;;;20.39;29.05;97106.75;4961705;28;1156;-79
2023/10/25 09:37:11;;;;;;;;;;;;;;;20.93;27.88;97094.25;4961549;28;916;-78
2023/10/25 09:39:37;;;;;;;;;;;;;;;21.13;27.43;97086.19;4961730;28;922;-79
2023/10/25 09:42:03;;;;;;;;;;;;;;;21.35;27.20;97079.72;4977523;28;1000;-78
2023/10/25 09:44:31;;;;;;;;;;;;;;;21.46;27.16;97080.09;4977217;28;1205;-78
2023/10/25 09:46:58;;;;;;;;;;;;;;;21.21;27.51;97079.03;4961639;28;896;-78
2023/10/25 09:49:26;;;;;;;;;;;;;;;21.06;27.67;97075.97;4977552;28;911;-78
2023/10/25 09:52:07;;;;;;;;;;;;;;;21.22;27.44;97077.75;4977437;28;1910;-78
2023/10/25 09:54:35;;;;;;;;;;;;;;;20.78;28.10;97072.19;4977458;28;918;-78
2023/10/25 09:57:04;;;;;;;;;;;;;;;20.64;28.26;97058.59;4993175;28;943;-79
2023/10/25 09:59:30;;;;;;;;;;;;;;;20.87;28.12;97062.97;4976978;28;903;-79
2023/10/25 10:01:55;;;;;;;;;;;;;;;21.02;27.59;97066.03;4977056;28;1205;-79
2023/10/25 10:04:33;;;;;;;;;;;;;;;20.94;27.87;97068.38;4988781;28;929;-78
2023/10/25 10:07:08;;;;;;;;;;;;;;;20.75;28.18;97067.47;5016087;28;1167;-78
2023/10/25 10:09:39;;;;;;;;;;;;;;;20.81;27.98;97065.59;5015665;28;1122;-78
2023/10/25 10:12:05;;;;;;;;;;;;;;;20.89;27.72;97059.69;5016119;28;1316;-78
2023/10/25 10:14:31;;;;;;;;;;;;;;;20.87;28.00;97045.22;4999726;28;889;-79
2023/10/25 10:17:08;;;;;;;;;;;;;;;20.65;27.96;97048.88;5012410;28;2044;-79
2023/10/25 10:19:33;;;;;;;;;;;;;;;21.01;27.60;97053.94;5018950;28;1001;-78
2023/10/25 10:22:05;;;;;;;;;;;;;;;20.75;27.80;97050.50;5018716;28;920;-78
2023/10/25 10:24:38;;;;;;;;;;;;;;;20.91;27.84;97057.97;5018945;28;954;-78
2023/10/25 10:27:03;;;;;;;;;;;;;;;20.54;28.29;97056.97;5019044;28;914;-78
2023/10/25 10:29:32;;;;;;;;;;;;;;;20.66;28.10;97044.00;5018779;28;762;-79
2023/10/25 10:32:04;;;;;;;;;;;;;;;20.52;28.06;97042.47;5037348;28;1906;-78
2023/10/25 10:34:38;;;;;;;;;;;;;;;20.76;27.99;97035.09;5038651;28;1235;-78
2023/10/25 10:37:20;;;;;;;;;;;;;;;20.54;28.04;97023.06;5055306;28;865;-78
2023/10/25 10:39:55;;;;;;;;;;;;;;;20.61;28.29;97028.41;5038536;28;1198;-77
2023/10/25 10:42:20;;;;;;;;;;;;;;;20.66;27.87;97030.66;5056254;28;1142;-78
2023/10/25 10:44:46;;;;;;;;;;;;;;;20.69;28.10;97029.75;5055835;28;1255;-78
2023/10/25 10:47:12;;;;;;;;;;;;;;;20.72;28.07;97028.78;5034787;28;973;-78
2023/10/25 10:49:39;;;;;;;;;;;;;;;20.49;28.37;97026.47;5002358;28;1348;-78
2023/10/25 10:52:06;;;;;;;;;;;;;;;20.51;28.20;97023.97;4996018;28;1132;-78
2023/10/25 10:54:32;;;;;;;;;;;;;;;20.57;28.35;97026.97;4979193;28;944;-78
2023/10/25 10:56:57;;;;;;;;;;;;;;;21.13;27.49;97023.97;4979801;28;975;-78
2023/10/25 10:59:28;;;;;;;;;;;;;;;21.30;27.17;97028.16;4979294;28;971;-78
2023/10/25 11:01:54;;;;;;;;;;;;;;;21.31;27.56;97029.75;4980372;28;1004;-78
2023/10/25 11:04:19;;;;;;;;;;;;;;;21.49;27.25;97031.81;4979198;28;999;-78
2023/10/25 11:06:45;;;;;;;;;;;;;;;21.27;27.55;97023.41;4995730;28;1078;-78
2023/10/25 11:09:10;;;;;;;;;;;;;;;20.80;28.14;97013.16;4978873;28;1113;-78
2023/10/25 11:11:36;;;;;;;;;;;;;;;20.88;28.02;97024.97;4995578;28;1977;-78
2023/10/25 11:14:01;;;;;;;;;;;;;;;21.02;27.78;97023.63;4979257;28;968;-79
2023/10/25 11:16:28;;;;;;;;;;;;;;;20.85;28.20;97019.47;4979804;28;1114;-78
2023/10/25 11:19:04;;;;;;;;;;;;;;;20.75;28.09;97016.56;5027004;28;957;-79
2023/10/25 11:21:32;;;;;;;;;;;;;;;20.64;28.50;97016.19;5018453;28;938;-79
2023/10/25 11:23:57;;;;;;;;;;;;;;;20.53;28.59;97015.81;4975739;28;1130;-79
2023/10/25 11:26:23;;;;;;;;;;;;;;;20.70;28.25;97008.69;4975694;28;983;-78
2023/10/25 11:28:49;;;;;;;;;;;;;;;20.89;27.90;97014.47;4964866;28;996;-78
2023/10/25 11:31:14;;;;;;;;;;;;;;;20.90;27.95;97021.69;4995352;28;1988;-79
2023/10/25 11:33:46;;;;;;;;;;;;;;;20.60;28.51;97021.19;4975885;28;1058;-78
2023/10/25 11:36:11;;;;;;;;;;;;;;;20.84;27.94;97029.19;4995057;28;917;-78
2023/10/25 11:38:44;;;;;;;;;;;;;;;20.65;28.14;97020.59;4979230;28;940;-78
2023/10/25 11:41:10;;;;;;;;;;;;;;;20.56;28.57;97023.38;4962974;28;1152;-78
2023/10/25 11:43:35;;;;;;;;;;;;;;;20.89;27.74;97031.41;4978534;28;1012;-78
2023/10/25 11:46:02;;;;;;;;;;;;;;;20.81;27.98;97030.91;4978794;28;1065;-79
2023/10/25 11:48:28;;;;;;;;;;;;;;;20.94;27.66;97025.16;4962296;28;925;-78
2023/10/25 11:50:53;;;;;;;;;;;;;;;20.69;28.27;97020.47;4962617;28;1899;-78
2023/10/25 11:53:19;;;;;;;;;;;;;;;20.58;28.15;97017.28;4994960;28;1000;-78
2023/10/25 11:55:44;;;;;;;;;;;;;;;20.59;28.13;97008.31;4995238;28;983;-78
2023/10/25 11:58:15;;;;;;;;;;;;;;;20.60;28.41;97012.72;4978439;28;999;-78
2023/10/25 12:00:40;;;;;;;;;;;;;;;20.74;28.18;97020.66;4990165;28;1053;-78
2023/10/25 12:03:06;;;;;;;;;;;;;;;20.59;28.20;97016.03;5055293;28;1239;-78
2023/10/25 12:05:31;;;;;;;;;;;;;;;20.55;28.36;97013.31;5054754;28;1292;-79
2023/10/25 12:07:57;;;;;;;;;;;;;;;20.44;28.50;97012.91;5041590;28;1067;-78
2023/10/25 12:10:24;;;;;;;;;;;;;;;20.52;28.59;97012.22;5024573;28;1969;-78
2023/10/25 12:12:50;;;;;;;;;;;;;;;20.41;28.61;97011.00;5041869;28;1158;-78
2023/10/25 12:15:15;;;;;;;;;;;;;;;20.72;28.04;97014.66;5054373;28;1274;-79
2023/10/25 12:17:41;;;;;;;;;;;;;;;20.50;28.65;97016.75;5054620;28;1270;-78
2023/10/25 12:20:07;;;;;;;;;;;;;;;20.66;28.14;97025.00;5054639;28;1004;-79
2023/10/25 12:22:32;;;;;;;;;;;;;;;20.72;28.31;97016.69;5038193;28;1032;-78
2023/10/25 12:24:58;;;;;;;;;;;;;;;20.60;28.29;97014.75;5054212;28;1062;-78
2023/10/25 12:27:23;;;;;;;;;;;;;;;20.64;28.11;97019.03;5054736;28;996;-78
2023/10/25 12:29:49;;;;;;;;;;;;;;;20.51;28.33;97019.09;5014672;28;1910;-78
2023/10/25 12:32:15;;;;;;;;;;;;;;;20.55;28.55;97007.66;4982018;28;920;-79
2023/10/25 12:34:41;;;;;;;;;;;;;;;20.76;27.89;97011.72;5014349;28;1024;-79
2023/10/25 12:37:06;;;;;;;;;;;;;;;20.70;27.98;97008.69;4996524;28;1380;-78
2023/10/25 12:39:34;;;;;;;;;;;;;;;20.70;28.06;97003.03;5001147;28;969;-78
2023/10/25 12:42:00;;;;;;;;;;;;;;;20.75;28.20;97016.56;5018098;28;951;-78
2023/10/25 12:44:26;;;;;;;;;;;;;;;20.62;28.35;97015.84;5013042;28;1564;-78
2023/10/25 12:46:51;;;;;;;;;;;;;;;20.65;28.27;97012.13;4997912;28;996;-78
2023/10/25 12:49:18;;;;;;;;;;;;;;;20.89;27.71;97014.47;4998176;28;945;-78
2023/10/25 12:51:44;;;;;;;;;;;;;;;20.69;28.18;97007.13;4981747;28;1918;-79
2023/10/25 12:54:10;;;;;;;;;;;;;;;20.77;28.19;97005.59;4982042;28;1005;-79
2023/10/25 12:56:37;;;;;;;;;;;;;;;20.47;28.46;97007.16;4998172;28;1001;-78